Time;durP1;ratioP1;P1;durP2;ratioP2;P2;SDS_P1;SDS_P2;PMS_P1;PMS_P2;Temp;Humidity;BMP_temperature;BMP_pressure;BME280_temperature;BME280_humidity;BME280_pressure;Samples;Min_cycle;Max_cycle;Signal;HPM_P1;HPM_P2
2022/01/07 00:00:00;;;;;;;14.68;11.43;;;;;;;14.43;41.87;93561.44;4919989;28;20109;-82
2022/01/07 00:02:26;;;;;;;13.10;9.90;;;;;;;14.39;41.85;93548.00;4935167;28;20099;-83
2022/01/07 00:04:51;;;;;;;12.63;9.32;;;;;;;14.38;41.48;93546.53;4935821;28;20469;-82
2022/01/07 00:07:16;;;;;;;13.77;10.48;;;;;;;14.37;41.83;93561.34;4951705;28;20476;-82
2022/01/07 00:09:42;;;;;;;11.30;8.85;;;;;;;14.34;41.96;93552.16;4935929;28;20042;-82
2022/01/07 00:12:08;;;;;;;15.30;11.77;;;;;;;14.33;41.80;93558.09;4951007;28;20038;-83
2022/01/07 00:14:33;;;;;;;13.05;10.85;;;;;;;14.36;41.98;93549.72;4969294;28;20034;-83
2022/01/07 00:16:58;;;;;;;13.07;9.30;;;;;;;14.43;41.72;93551.28;4936043;28;20035;-82
2022/01/07 00:19:24;;;;;;;12.43;11.00;;;;;;;14.37;41.92;93545.03;4935751;28;20405;-82
2022/01/07 00:21:49;;;;;;;13.32;10.82;;;;;;;14.43;41.78;93539.66;4968923;28;20260;-82
2022/01/07 00:24:15;;;;;;;12.68;10.57;;;;;;;14.39;41.69;93535.16;4934657;28;20039;-82
2022/01/07 00:26:40;;;;;;;14.13;11.10;;;;;;;14.39;41.82;93535.16;4969162;28;20494;-82
2022/01/07 00:29:05;;;;;;;12.15;10.05;;;;;;;14.38;41.84;93533.66;4934872;28;20070;-82
2022/01/07 00:31:31;;;;;;;14.13;11.23;;;;;;;14.36;41.94;93538.84;4951672;28;20035;-82
2022/01/07 00:33:56;;;;;;;13.75;10.68;;;;;;;14.44;41.87;93535.72;4935329;28;20805;-82
2022/01/07 00:36:21;;;;;;;14.00;10.60;;;;;;;14.44;41.66;93533.00;4934710;28;20529;-82
2022/01/07 00:38:47;;;;;;;13.13;9.65;;;;;;;14.45;42.09;93529.06;4968542;28;20031;-82
2022/01/07 00:41:12;;;;;;;13.00;9.88;;;;;;;14.46;41.74;93536.75;4951046;28;20035;-82
2022/01/07 00:43:38;;;;;;;13.50;10.40;;;;;;;14.46;42.12;93539.47;4968347;28;20039;-82
2022/01/07 00:46:03;;;;;;;11.77;8.90;;;;;;;14.41;41.62;93532.00;4935172;28;20039;-82
2022/01/07 00:48:28;;;;;;;13.23;10.45;;;;;;;14.38;41.69;93528.22;4951057;28;20038;-83
2022/01/07 00:50:54;;;;;;;12.52;9.57;;;;;;;14.47;41.28;93535.50;4953470;28;20038;-82
2022/01/07 00:53:19;;;;;;;13.43;10.52;;;;;;;14.44;41.66;93533.00;4954534;28;20046;-82
2022/01/07 00:55:45;;;;;;;12.43;9.93;;;;;;;14.45;41.73;93532.53;4939190;28;20469;-82
2022/01/07 00:58:10;;;;;;;11.50;9.50;;;;;;;14.38;41.50;93541.09;4922494;28;20049;-83
2022/01/07 01:00:35;;;;;;;11.35;9.63;;;;;;;14.39;41.51;93534.41;4938757;28;20045;-82
2022/01/07 01:03:01;;;;;;;11.65;9.00;;;;;;;14.40;41.82;93535.91;4935256;28;20499;-83
2022/01/07 01:05:26;;;;;;;13.70;10.70;;;;;;;14.37;41.95;93532.19;4919449;29;20760;-83
2022/01/07 01:07:52;;;;;;;13.43;11.02;;;;;;;14.38;41.61;93539.09;4919645;29;20047;-82
2022/01/07 01:10:19;;;;;;;13.10;9.70;;;;;;;14.38;41.42;93541.81;4919068;28;20043;-82
2022/01/07 01:12:44;;;;;;;14.68;10.95;;;;;;;14.41;41.62;93537.44;4962642;28;20023;-82
2022/01/07 01:15:11;;;;;;;15.15;10.20;;;;;;;14.43;41.71;93545.84;4938485;28;20082;-82
2022/01/07 01:17:37;;;;;;;12.27;9.63;;;;;;;14.37;41.57;93536.88;4954679;28;20296;-82
2022/01/07 01:20:04;;;;;;;12.52;9.15;;;;;;;14.42;41.53;93535.47;4971696;28;20039;-83
2022/01/07 01:22:30;;;;;;;12.98;9.48;;;;;;;14.44;41.33;93533.75;4938597;28;20121;-83
2022/01/07 01:24:55;;;;;;;11.02;9.48;;;;;;;14.42;41.61;93535.47;4937751;28;20034;-82
2022/01/07 01:27:20;;;;;;;13.98;9.40;;;;;;;14.37;41.57;93524.00;4953998;28;20047;-82
2022/01/07 01:29:46;;;;;;;11.60;9.70;;;;;;;14.34;41.57;93526.94;4938885;28;20379;-83
2022/01/07 01:32:11;;;;;;;13.32;9.52;;;;;;;14.40;41.28;93530.47;4970465;28;20046;-83
2022/01/07 01:34:36;;;;;;;12.55;8.80;;;;;;;14.38;41.69;93533.66;4971313;28;20031;-82
2022/01/07 01:37:02;;;;;;;12.45;9.60;;;;;;;14.37;41.88;93526.72;4953997;28;20090;-82
2022/01/07 01:39:27;;;;;;;10.05;8.57;;;;;;;14.38;41.64;93527.47;4938075;28;20126;-82
2022/01/07 01:41:53;;;;;;;9.88;8.50;;;;;;;14.33;41.50;93526.19;4938198;28;20065;-82
2022/01/07 01:44:18;;;;;;;13.18;10.52;;;;;;;14.39;41.74;93521.56;4953308;28;20039;-82
2022/01/07 01:46:44;;;;;;;10.90;8.57;;;;;;;14.37;41.24;93521.28;4938475;28;20545;-82
2022/01/07 01:49:09;;;;;;;11.05;8.90;;;;;;;14.36;41.55;93522.53;4953037;28;20039;-83
2022/01/07 01:51:34;;;;;;;10.77;8.60;;;;;;;14.37;41.52;93520.56;4938456;28;20037;-82
2022/01/07 01:54:00;;;;;;;11.65;10.02;;;;;;;14.38;41.58;93514.63;4937947;28;20042;-82
2022/01/07 01:56:25;;;;;;;11.40;9.32;;;;;;;14.40;41.42;93517.66;4937456;28;20042;-82
2022/01/07 01:58:51;;;;;;;11.18;9.00;;;;;;;14.38;41.48;93506.47;4953965;28;20125;-82
2022/01/07 02:01:16;;;;;;;11.85;9.07;;;;;;;14.34;41.52;93505.19;4952608;28;20038;-82
2022/01/07 02:03:42;;;;;;;11.35;9.40;;;;;;;14.40;41.43;93514.16;4934442;28;20389;-82
2022/01/07 02:06:07;;;;;;;11.30;9.10;;;;;;;14.41;41.46;93515.66;4918017;29;20409;-82
2022/01/07 02:08:36;;;;;;;11.05;9.18;;;;;;;14.33;41.38;93511.84;4963344;28;20078;-82
2022/01/07 02:11:01;;;;;;;10.30;8.55;;;;;;;14.38;41.37;93506.47;4968245;28;20031;-82
2022/01/07 02:13:27;;;;;;;11.68;9.40;;;;;;;14.35;41.87;93495.81;4948381;28;20092;-83
2022/01/07 02:15:52;;;;;;;10.55;9.02;;;;;;;14.32;41.86;93499.47;4968396;28;20086;-82
2022/01/07 02:18:18;;;;;;;11.32;8.05;;;;;;;14.27;41.60;93503.69;4968788;28;20046;-82
2022/01/07 02:20:43;;;;;;;11.90;9.05;;;;;;;14.29;41.74;93501.19;4969842;28;20391;-82
2022/01/07 02:23:09;;;;;;;9.00;7.45;;;;;;;14.26;41.70;93494.03;4968883;28;20053;-82
2022/01/07 02:25:34;;;;;;;10.63;8.93;;;;;;;14.25;41.77;93478.94;4939495;28;20046;-82
2022/01/07 02:27:59;;;;;;;11.35;8.40;;;;;;;14.23;41.73;93478.66;4970627;28;20053;-82
2022/01/07 02:30:27;;;;;;;10.60;8.48;;;;;;;14.26;41.75;93490.56;4970336;28;20046;-82
2022/01/07 02:32:53;;;;;;;11.60;8.25;;;;;;;14.25;41.71;93478.94;4970510;28;20035;-82
2022/01/07 02:35:19;;;;;;;10.80;8.48;;;;;;;14.33;41.61;93484.66;4936833;28;20046;-83
2022/01/07 02:37:45;;;;;;;11.80;9.32;;;;;;;14.29;41.62;93487.59;4920990;28;20093;-82
2022/01/07 02:40:11;;;;;;;11.77;9.05;;;;;;;14.33;41.60;93490.09;4936323;28;20038;-83
2022/01/07 02:42:36;;;;;;;9.73;7.90;;;;;;;14.36;41.26;93494.59;4937045;28;20053;-83
2022/01/07 02:45:05;;;;;;;10.50;7.72;;;;;;;14.36;40.97;93494.59;4936826;28;20051;-82
2022/01/07 02:47:38;;;;;;;11.85;8.48;;;;;;;14.34;41.49;93488.88;4969810;28;20038;-82
2022/01/07 02:50:05;;;;;;;9.77;7.95;;;;;;;14.33;41.73;93484.66;4953957;28;20035;-82
2022/01/07 02:52:31;;;;;;;14.85;9.80;;;;;;;14.34;41.39;93478.75;4953081;28;20042;-82
2022/01/07 02:54:56;;;;;;;11.27;9.48;;;;;;;14.38;41.16;93484.72;4936626;28;20054;-82
2022/01/07 02:57:22;;;;;;;10.00;8.18;;;;;;;14.33;41.33;93477.25;4936048;28;20469;-82
2022/01/07 02:59:47;;;;;;;9.52;8.18;;;;;;;14.32;41.46;93485.88;4952315;28;20406;-82
2022/01/07 03:02:13;;;;;;;11.23;9.38;;;;;;;14.35;41.78;93479.50;4935795;28;20093;-82
2022/01/07 03:04:38;;;;;;;13.07;9.40;;;;;;;14.38;41.33;93473.84;4920897;28;20035;-82
2022/01/07 03:07:06;;;;;;;8.38;7.47;;;;;;;14.44;40.63;93471.19;4935962;28;20054;-82
2022/01/07 03:09:32;;;;;;;10.02;8.18;;;;;;;14.39;41.41;93467.16;4920733;28;20565;-82
2022/01/07 03:11:57;;;;;;;11.35;8.70;;;;;;;14.34;41.25;93451.56;4936096;28;20046;-83
2022/01/07 03:14:23;;;;;;;9.82;8.35;;;;;;;14.32;41.46;93469.56;4935751;28;20023;-82
2022/01/07 03:16:49;;;;;;;9.68;8.23;;;;;;;14.35;41.22;93465.91;4936578;28;20027;-82
2022/01/07 03:19:14;;;;;;;11.30;8.70;;;;;;;14.33;41.21;93471.06;4936187;28;20042;-83
2022/01/07 03:21:40;;;;;;;10.27;7.95;;;;;;;14.37;41.45;93458.00;4920814;28;20031;-83
2022/01/07 03:24:05;;;;;;;8.60;7.70;;;;;;;14.33;41.57;93465.63;4951280;28;20398;-82
2022/01/07 03:26:30;;;;;;;10.02;8.75;;;;;;;14.34;41.37;93461.69;4951841;28;20034;-82
2022/01/07 03:28:56;;;;;;;11.35;9.18;;;;;;;14.32;41.20;93462.16;4936460;28;20055;-83
2022/01/07 03:31:21;;;;;;;10.98;8.55;;;;;;;14.39;41.29;93466.44;4951610;28;20113;-82
2022/01/07 03:33:47;;;;;;;13.35;9.15;;;;;;;14.40;41.27;93467.91;4919835;28;20081;-82
2022/01/07 03:36:12;;;;;;;10.57;8.45;;;;;;;14.33;41.38;93444.63;4951601;28;20034;-82
2022/01/07 03:38:37;;;;;;;11.27;8.85;;;;;;;14.33;41.36;93460.19;4952624;28;20041;-82
2022/01/07 03:41:03;;;;;;;9.82;7.63;;;;;;;14.36;41.12;93456.50;4935325;28;20441;-82
2022/01/07 03:43:28;;;;;;;9.35;8.15;;;;;;;14.32;41.09;93455.97;4936093;28;20065;-82
2022/01/07 03:45:54;;;;;;;10.77;8.63;;;;;;;14.33;41.34;93454.75;4935862;28;20070;-82
2022/01/07 03:48:19;;;;;;;10.07;8.18;;;;;;;14.31;41.47;93441.63;4951421;28;20865;-82
2022/01/07 03:50:44;;;;;;;12.80;9.10;;;;;;;14.38;41.40;93443.91;4935795;28;20043;-82
2022/01/07 03:53:10;;;;;;;10.38;8.77;;;;;;;14.36;41.16;93464.66;4919730;28;20281;-82
2022/01/07 03:55:35;;;;;;;12.95;9.43;;;;;;;14.33;41.37;93458.22;4918821;28;20414;-82
2022/01/07 03:58:01;;;;;;;11.68;9.68;;;;;;;14.30;41.20;93458.44;4935835;28;20047;-83
2022/01/07 04:00:33;;;;;;;10.55;8.32;;;;;;;14.30;41.09;93453.00;4919252;28;20101;-82
2022/01/07 04:03:00;;;;;;;10.07;8.05;;;;;;;14.32;41.19;93445.09;4937031;28;20070;-82
2022/01/07 04:05:26;;;;;;;11.70;8.32;;;;;;;14.27;41.20;93446.56;4968571;28;20035;-82
2022/01/07 04:07:51;;;;;;;11.35;8.45;;;;;;;14.31;41.21;93451.78;4935647;28;20097;-82
2022/01/07 04:10:16;;;;;;;10.93;8.02;;;;;;;14.40;41.25;93451.59;4951146;28;20058;-82
2022/01/07 04:12:42;;;;;;;10.55;7.93;;;;;;;14.38;40.82;93457.53;4951946;28;20039;-82
2022/01/07 04:15:08;;;;;;;9.77;8.13;;;;;;;14.35;41.50;93450.31;4951502;28;20050;-82
2022/01/07 04:17:41;;;;;;;12.18;9.02;;;;;;;14.36;41.36;93440.19;4935559;28;20039;-82
2022/01/07 04:20:07;;;;;;;8.77;7.32;;;;;;;14.35;41.19;93439.44;4950972;28;20043;-82
2022/01/07 04:22:33;;;;;;;11.48;8.70;;;;;;;14.31;41.07;93451.78;4951667;28;20035;-82
2022/01/07 04:24:59;;;;;;;9.93;7.75;;;;;;;14.35;41.38;93449.56;4934707;28;20043;-83
2022/01/07 04:27:25;;;;;;;11.25;8.48;;;;;;;14.30;41.18;93451.03;4953241;28;20431;-82
2022/01/07 04:29:51;;;;;;;12.32;8.50;;;;;;;14.23;41.22;93451.47;4920851;29;20046;-82
2022/01/07 04:32:16;;;;;;;11.95;8.88;;;;;;;14.29;41.29;93452.25;4919686;28;20056;-82
2022/01/07 04:34:41;;;;;;;12.27;9.20;;;;;;;14.36;41.39;93461.94;4920284;29;20074;-82
2022/01/07 04:37:07;;;;;;;11.68;8.18;;;;;;;14.29;41.38;93451.53;4948443;28;20035;-82
2022/01/07 04:39:32;;;;;;;10.30;7.82;;;;;;;14.33;41.24;93447.34;4939077;28;20039;-83
2022/01/07 04:41:59;;;;;;;9.15;7.65;;;;;;;14.33;41.47;93449.31;4939608;28;20409;-83
2022/01/07 04:44:25;;;;;;;9.38;7.47;;;;;;;14.33;41.27;93444.63;4938631;28;20122;-82
2022/01/07 04:46:50;;;;;;;9.85;7.55;;;;;;;14.33;41.29;93436.47;4939016;28;20034;-83
2022/01/07 04:49:16;;;;;;;9.70;7.75;;;;;;;14.31;41.40;93444.34;4954643;28;20035;-82
2022/01/07 04:51:41;;;;;;;12.52;8.77;;;;;;;14.37;41.19;93442.44;4955056;28;20090;-82
2022/01/07 04:54:06;;;;;;;9.98;8.40;;;;;;;14.34;41.06;93432.50;4954634;28;20073;-82
2022/01/07 04:56:32;;;;;;;10.20;8.63;;;;;;;14.35;41.30;93439.44;4939192;28;20074;-82
2022/01/07 04:58:57;;;;;;;11.32;8.50;;;;;;;14.33;41.45;93444.63;4955244;28;20053;-82
2022/01/07 05:01:23;;;;;;;9.48;8.23;;;;;;;14.33;41.11;93452.03;4954196;28;20058;-82
2022/01/07 05:03:48;;;;;;;11.73;7.82;;;;;;;14.35;41.48;93447.59;4954790;28;20398;-82
2022/01/07 05:08:44;;;;;;;10.07;7.50;;;;;;;14.32;41.36;93445.84;4955883;28;20394;-83
2022/01/07 05:11:10;;;;;;;9.30;8.10;;;;;;;14.33;41.13;93431.03;4938390;28;20035;-82
2022/01/07 05:13:35;;;;;;;11.70;7.70;;;;;;;14.37;41.08;93426.13;4935578;28;20043;-82
2022/01/07 05:16:01;;;;;;;9.45;7.10;;;;;;;14.31;41.21;93421.84;4952455;28;20035;-82
2022/01/07 05:18:26;;;;;;;9.30;7.88;;;;;;;14.26;41.48;93426.06;4952294;28;20114;-82
2022/01/07 05:20:52;;;;;;;8.80;7.90;;;;;;;14.27;41.22;93432.97;4919564;29;20039;-82
2022/01/07 05:23:19;;;;;;;10.05;8.23;;;;;;;14.33;40.92;93422.88;4934811;28;20043;-82
2022/01/07 05:25:44;;;;;;;8.55;7.68;;;;;;;14.33;41.09;93417.44;4953049;28;20031;-82
2022/01/07 05:28:10;;;;;;;9.82;8.40;;;;;;;14.27;41.36;93411.22;4953709;28;20379;-82
2022/01/07 05:30:35;;;;;;;9.77;7.63;;;;;;;14.22;41.39;93414.66;4938896;28;20057;-82
2022/01/07 05:33:00;;;;;;;10.10;8.10;;;;;;;14.27;41.34;93413.94;4934951;28;20047;-83
2022/01/07 05:35:28;;;;;;;8.50;6.88;;;;;;;14.33;40.86;93411.25;4950153;28;20039;-82
2022/01/07 05:37:53;;;;;;;9.77;7.78;;;;;;;14.28;40.45;93415.44;4952162;28;20051;-82
2022/01/07 05:40:19;;;;;;;9.50;7.32;;;;;;;14.25;41.37;93415.66;4935181;28;20040;-82
2022/01/07 05:42:44;;;;;;;8.95;7.47;;;;;;;14.25;41.42;93419.13;4951069;29;20128;-83
2022/01/07 05:45:10;;;;;;;9.80;7.75;;;;;;;14.21;41.45;93426.75;4935186;28;20066;-83
2022/01/07 05:47:35;;;;;;;9.13;7.55;;;;;;;14.24;41.32;93406.75;4951854;28;20127;-82
2022/01/07 05:50:00;;;;;;;10.10;7.90;;;;;;;14.33;41.31;93412.00;4952185;28;20264;-83
2022/01/07 05:52:26;;;;;;;7.70;6.30;;;;;;;14.35;41.11;93417.69;4934620;28;20532;-83
2022/01/07 05:54:51;;;;;;;8.75;7.38;;;;;;;14.31;41.32;93421.84;4952427;28;20449;-82
2022/01/07 05:57:17;;;;;;;8.48;7.55;;;;;;;14.35;41.25;93414.97;4934447;28;20303;-83
2022/01/07 05:59:42;;;;;;;10.35;8.15;;;;;;;14.33;41.17;93406.56;4934574;28;20042;-82
2022/01/07 06:02:07;;;;;;;10.23;7.82;;;;;;;14.34;41.13;93402.59;4950996;28;20411;-82
2022/01/07 06:04:33;;;;;;;9.75;7.78;;;;;;;14.30;41.33;93410.22;4950393;28;20047;-82
2022/01/07 06:06:58;;;;;;;8.52;7.53;;;;;;;14.33;41.15;93401.13;4949537;28;20113;-82
2022/01/07 06:09:24;;;;;;;11.55;7.68;;;;;;;14.26;41.47;93412.47;4917423;28;20058;-82
2022/01/07 06:11:49;;;;;;;10.48;7.95;;;;;;;14.28;41.40;93409.25;4949107;28;20039;-82
2022/01/07 06:14:14;;;;;;;9.02;7.80;;;;;;;14.37;41.06;93409.06;4948802;28;20047;-82
2022/01/07 06:16:40;;;;;;;11.75;7.97;;;;;;;14.33;41.25;93412.00;4934184;28;20043;-82
2022/01/07 06:19:05;;;;;;;9.38;7.07;;;;;;;14.39;40.61;93414.75;4949973;28;20553;-82
2022/01/07 06:21:31;;;;;;;7.88;6.82;;;;;;;14.34;40.99;93415.44;4949884;28;20082;-82
2022/01/07 06:23:56;;;;;;;10.50;7.72;;;;;;;14.31;41.10;93405.53;4950205;28;20147;-82
2022/01/07 06:26:22;;;;;;;8.98;7.75;;;;;;;14.30;41.20;93398.63;4933886;28;20507;-82
2022/01/07 06:28:47;;;;;;;8.55;6.93;;;;;;;14.29;41.39;93395.16;4950409;28;20402;-83
2022/01/07 06:31:12;;;;;;;9.73;8.15;;;;;;;14.27;41.28;93394.91;4949470;28;20133;-83
2022/01/07 06:33:38;;;;;;;9.75;7.55;;;;;;;14.25;41.11;93391.94;4933952;28;20035;-82
2022/01/07 06:36:04;;;;;;;8.70;7.43;;;;;;;14.24;41.20;93392.41;4933351;28;20464;-82
2022/01/07 06:38:29;;;;;;;9.48;7.80;;;;;;;14.29;40.97;93386.28;4933783;28;20487;-82
2022/01/07 06:40:54;;;;;;;9.70;7.95;;;;;;;14.27;41.05;93396.88;4934183;28;20039;-82
2022/01/07 06:43:20;;;;;;;8.60;7.35;;;;;;;14.30;41.18;93395.91;4949650;28;20308;-82
2022/01/07 06:45:45;;;;;;;8.75;6.93;;;;;;;14.31;41.32;93381.06;4933611;29;20039;-82
2022/01/07 06:48:11;;;;;;;11.88;7.93;;;;;;;14.29;41.21;93381.56;4932347;28;20035;-82
2022/01/07 06:50:36;;;;;;;10.98;8.27;;;;;;;14.28;41.08;93379.34;4934106;28;20035;-82
2022/01/07 06:53:01;;;;;;;8.38;7.25;;;;;;;14.31;41.13;93384.53;4933459;28;20047;-82
2022/01/07 06:55:27;;;;;;;9.02;7.60;;;;;;;14.28;41.21;93380.09;4933388;28;20487;-82
2022/01/07 06:57:52;;;;;;;9.32;7.30;;;;;;;14.25;41.28;93381.06;4933699;28;20067;-83
2022/01/07 07:00:18;;;;;;;9.82;7.05;;;;;;;14.30;41.22;93374.13;4948536;28;20046;-82
2022/01/07 07:02:43;;;;;;;8.35;7.22;;;;;;;14.27;41.28;93384.03;4950514;28;20050;-82
2022/01/07 07:05:08;;;;;;;10.23;7.47;;;;;;;14.29;41.28;93387.00;4947160;28;20495;-83
2022/01/07 07:07:34;;;;;;;8.43;7.28;;;;;;;14.31;41.37;93389.97;4915609;29;20039;-83
2022/01/07 07:09:59;;;;;;;10.68;7.82;;;;;;;14.30;41.20;93385.03;4899991;29;20042;-82
2022/01/07 07:12:25;;;;;;;8.57;7.05;;;;;;;14.37;40.97;93384.56;4900164;28;20522;-82
2022/01/07 07:14:50;;;;;;;8.32;7.10;;;;;;;14.33;40.95;93386.78;4931772;28;20094;-82
2022/01/07 07:17:16;;;;;;;7.53;6.70;;;;;;;14.27;41.10;93386.00;4931452;28;20050;-82
2022/01/07 07:19:41;;;;;;;9.48;8.07;;;;;;;14.33;41.31;93378.63;4915984;29;20039;-82
2022/01/07 07:22:06;;;;;;;9.77;8.00;;;;;;;14.28;41.09;93385.53;4931112;28;20537;-82
2022/01/07 07:24:32;;;;;;;9.07;7.60;;;;;;;14.23;41.33;93386.22;4947724;28;20035;-82
2022/01/07 07:26:58;;;;;;;9.25;7.78;;;;;;;14.26;41.14;93387.25;4931928;28;20128;-83
2022/01/07 07:29:23;;;;;;;10.02;8.73;;;;;;;14.30;41.18;93385.03;4947472;28;20042;-82
2022/01/07 07:31:53;;;;;;;8.20;6.72;;;;;;;14.23;41.71;93382.75;4931351;29;20043;-82
2022/01/07 07:34:32;;;;;;;8.57;7.10;;;;;;;14.22;41.04;93379.31;4931858;28;20462;-82
2022/01/07 07:36:57;;;;;;;8.18;7.35;;;;;;;14.27;41.07;93369.69;4948424;28;20403;-83
2022/01/07 07:39:22;;;;;;;8.68;7.68;;;;;;;14.27;41.14;93369.69;4932225;28;20050;-82
2022/01/07 07:41:49;;;;;;;10.15;7.80;;;;;;;14.31;41.26;93376.38;4948804;29;20047;-82
2022/01/07 07:44:14;;;;;;;8.77;7.03;;;;;;;14.30;41.26;93366.72;4948010;28;20475;-82
2022/01/07 07:46:40;;;;;;;9.52;8.10;;;;;;;14.32;41.18;93368.97;4917174;29;20500;-82
2022/01/07 07:49:06;;;;;;;8.77;7.70;;;;;;;14.31;41.06;93378.34;4932491;28;20629;-82
2022/01/07 07:51:32;;;;;;;10.43;7.43;;;;;;;14.37;41.00;93369.00;4916981;29;20031;-82
2022/01/07 07:53:57;;;;;;;8.23;6.55;;;;;;;14.35;41.39;93371.47;4950311;28;20482;-82
2022/01/07 07:56:23;;;;;;;9.70;7.32;;;;;;;14.37;40.76;93382.59;4932281;28;20123;-82
2022/01/07 07:58:48;;;;;;;8.63;6.82;;;;;;;14.49;40.64;93372.59;4932090;29;20406;-82
2022/01/07 08:01:13;;;;;;;8.65;7.32;;;;;;;14.34;40.91;93375.41;4932124;28;20491;-82
2022/01/07 08:03:40;;;;;;;8.20;6.47;;;;;;;14.37;41.00;93354.66;4913182;29;20099;-82
2022/01/07 08:06:05;;;;;;;8.82;7.15;;;;;;;14.38;40.67;93364.31;4912931;28;20054;-83
2022/01/07 08:08:33;;;;;;;9.38;7.53;;;;;;;14.33;40.93;93373.19;4929334;29;20040;-82
2022/01/07 08:11:02;;;;;;;9.93;7.70;;;;;;;14.33;41.04;93373.91;4913669;29;20412;-82
2022/01/07 08:13:28;;;;;;;8.55;6.95;;;;;;;14.31;41.06;93381.81;4944610;28;20564;-82
2022/01/07 08:15:58;;;;;;;8.13;6.85;;;;;;;14.32;41.17;93385.28;4932549;29;20050;-82
2022/01/07 08:18:28;;;;;;;8.60;7.65;;;;;;;14.28;41.20;93388.25;4932694;28;20379;-82
2022/01/07 08:20:59;;;;;;;9.10;7.07;;;;;;;14.31;41.16;93386.50;4932929;29;20035;-83
2022/01/07 08:23:24;;;;;;;8.10;6.85;;;;;;;14.30;41.60;93383.03;4947718;28;20039;-82
2022/01/07 08:25:50;;;;;;;9.02;7.60;;;;;;;14.29;41.26;93381.56;4948147;28;20031;-82
2022/01/07 08:28:16;;;;;;;9.07;7.13;;;;;;;14.33;41.09;93370.47;4916011;28;20086;-82
2022/01/07 08:31:00;;;;;;;8.30;6.93;;;;;;;14.35;41.37;93370.72;4948366;28;20245;-83
2022/01/07 08:36:10;;;;;;;9.93;8.13;;;;;;;14.35;41.11;93378.88;4934444;28;20081;-82
2022/01/07 08:38:35;;;;;;;8.27;6.60;;;;;;;14.38;40.87;93381.38;4932355;28;20062;-82
2022/01/07 08:41:00;;;;;;;8.68;7.45;;;;;;;14.40;41.08;93376.22;4916098;29;20051;-82
2022/01/07 08:43:26;;;;;;;7.32;6.38;;;;;;;14.40;40.96;93376.22;4947783;28;20043;-82
2022/01/07 08:45:51;;;;;;;9.95;7.63;;;;;;;14.45;40.95;93385.66;4932644;28;20066;-82
2022/01/07 08:48:17;;;;;;;9.35;7.25;;;;;;;14.39;41.12;93373.97;4947914;28;20039;-82
2022/01/07 08:50:44;;;;;;;13.07;6.40;;;;;;;14.50;40.24;93370.59;4932045;28;20057;-82
2022/01/07 08:53:10;;;;;;;8.00;6.95;;;;;;;14.47;40.84;93369.59;4915945;28;20043;-82
2022/01/07 08:55:35;;;;;;;8.70;7.20;;;;;;;14.44;41.01;93358.94;4949235;28;20387;-83
2022/01/07 08:58:01;;;;;;;7.80;6.50;;;;;;;14.39;40.99;93366.56;4916429;29;20046;-82
2022/01/07 09:00:26;;;;;;;8.88;7.32;;;;;;;14.40;40.95;93365.34;4931855;28;20039;-82
2022/01/07 09:02:52;;;;;;;8.25;6.60;;;;;;;14.36;40.81;93356.63;4948095;28;20354;-82
2022/01/07 09:05:17;;;;;;;9.15;7.28;;;;;;;14.33;41.25;93368.47;4948911;28;20410;-82
2022/01/07 09:07:43;;;;;;;8.40;6.63;;;;;;;14.32;40.96;93369.72;4932391;29;20039;-82
2022/01/07 09:10:08;;;;;;;8.57;6.05;;;;;;;14.33;41.18;93373.91;4915162;28;20036;-82
2022/01/07 09:12:34;;;;;;;8.38;7.55;;;;;;;14.34;41.17;93369.97;4951074;28;20039;-82
2022/01/07 09:14:59;;;;;;;7.15;6.45;;;;;;;14.37;40.14;93377.16;4951646;28;20035;-82
2022/01/07 09:17:26;;;;;;;9.55;7.32;;;;;;;14.37;40.92;93371.72;4950832;28;20039;-83
2022/01/07 09:19:51;;;;;;;7.97;6.68;;;;;;;14.31;40.90;93362.78;4953177;28;20058;-83
2022/01/07 09:22:17;;;;;;;7.63;6.82;;;;;;;14.36;40.84;93372.22;4934361;28;20031;-83
2022/01/07 09:24:42;;;;;;;10.75;7.75;;;;;;;14.39;41.00;93371.25;4950930;28;20039;-83
2022/01/07 09:27:08;;;;;;;7.60;6.75;;;;;;;14.40;41.03;93370.00;4952225;28;20118;-83
2022/01/07 09:29:33;;;;;;;10.20;7.53;;;;;;;14.36;41.11;93369.50;4935208;29;20039;-82
2022/01/07 09:31:59;;;;;;;7.75;6.60;;;;;;;14.38;41.07;93364.31;4944021;28;20043;-83
2022/01/07 09:34:24;;;;;;;7.85;6.85;;;;;;;14.32;41.06;93369.72;4935483;28;20035;-82
2022/01/07 09:36:49;;;;;;;9.63;7.22;;;;;;;14.35;40.87;93371.47;4927069;28;20418;-83
2022/01/07 09:39:15;;;;;;;7.88;6.57;;;;;;;14.37;41.29;93362.81;4943633;28;20074;-83
2022/01/07 09:41:40;;;;;;;8.60;6.93;;;;;;;14.42;40.99;93361.41;4937398;28;20043;-83
2022/01/07 09:44:10;;;;;;;8.52;7.55;;;;;;;14.40;40.91;93357.19;4937646;28;20035;-82
2022/01/07 09:46:36;;;;;;;7.73;6.03;;;;;;;14.36;40.97;93356.63;4939005;28;20078;-82
2022/01/07 09:49:04;;;;;;;7.97;6.25;;;;;;;14.39;40.80;93349.50;4922412;28;20782;-82
2022/01/07 09:51:29;;;;;;;7.78;6.32;;;;;;;14.38;41.07;93339.84;4937781;28;20067;-83
2022/01/07 09:53:54;;;;;;;9.23;6.85;;;;;;;14.39;41.00;93344.78;4937796;28;20035;-83
2022/01/07 09:56:20;;;;;;;9.27;7.15;;;;;;;14.47;40.72;93345.13;4953057;28;20544;-82
2022/01/07 09:58:45;;;;;;;7.47;6.45;;;;;;;14.45;40.85;93344.13;4938181;28;20038;-82
2022/01/07 10:01:14;;;;;;;7.32;6.18;;;;;;;14.38;40.79;93340.59;4921334;28;20077;-82
2022/01/07 10:03:41;;;;;;;9.30;7.10;;;;;;;14.41;41.00;93330.75;4922681;28;20035;-82
2022/01/07 10:06:22;;;;;;;9.75;7.90;;;;;;;14.44;40.82;93339.91;4941670;28;20054;-82
2022/01/07 10:09:07;;;;;;;;;;;;;;;14.48;41.00;93343.16;4952861;28;20047;-83
2022/01/07 10:11:33;;;;;;;9.68;7.00;;;;;;;14.44;41.16;93334.47;4963680;28;20003;-82
2022/01/07 10:14:19;;;;;;;7.63;6.70;;;;;;;14.41;40.91;93328.03;4948688;28;20043;-82
2022/01/07 10:16:49;;;;;;;9.50;7.28;;;;;;;14.42;40.91;93334.94;4937166;28;20035;-82
2022/01/07 10:19:35;;;;;;;9.75;7.57;;;;;;;14.46;40.99;93327.31;4969415;28;20050;-82
2022/01/07 10:22:04;;;;;;;8.98;6.85;;;;;;;14.45;40.98;93325.06;4953943;28;20031;-82
2022/01/07 10:24:29;;;;;;;10.23;7.72;;;;;;;14.51;40.70;93334.00;4964631;28;20035;-82
2022/01/07 10:27:10;;;;;;;8.43;7.35;;;;;;;14.45;41.13;93322.38;4921537;28;20272;-82
2022/01/07 10:29:40;;;;;;;9.02;7.30;;;;;;;14.43;40.90;93330.25;4952883;28;20035;-82
2022/01/07 10:32:31;;;;;;;8.38;7.10;;;;;;;14.41;41.19;93325.31;4933863;28;20047;-82
2022/01/07 10:35:09;;;;;;;8.95;6.97;;;;;;;14.46;40.96;93319.16;4935305;28;20047;-82
2022/01/07 10:37:37;;;;;;;11.23;8.32;;;;;;;14.42;40.94;93312.44;4934109;28;20035;-83
2022/01/07 10:40:25;;;;;;;9.30;7.22;;;;;;;14.43;40.98;93303.81;4917791;28;20130;-83
2022/01/07 10:42:53;;;;;;;8.23;6.47;;;;;;;14.39;41.05;93312.16;4933702;29;20557;-82
2022/01/07 10:45:19;;;;;;;8.68;6.85;;;;;;;14.45;40.99;93312.22;4917916;28;20051;-82
2022/01/07 10:47:49;;;;;;;7.75;6.90;;;;;;;14.45;41.24;93298.63;4949017;28;20120;-82
2022/01/07 10:50:18;;;;;;;12.05;7.65;;;;;;;14.46;40.84;93308.28;4917216;28;20051;-82
2022/01/07 10:52:43;;;;;;;126.18;86.18;;;;;;;14.60;41.11;93307.34;4948887;28;20550;-84
2022/01/07 10:55:12;;;;;;;34.92;26.58;;;;;;;14.67;40.56;93304.16;4917409;28;20082;-82
2022/01/07 10:57:43;;;;;;;9.98;7.70;;;;;;;14.66;40.77;93310.09;4933947;28;20059;-82
2022/01/07 11:00:11;;;;;;;9.82;7.10;;;;;;;14.68;40.76;93307.63;4949090;28;20085;-83
2022/01/07 11:02:36;;;;;;;27.23;20.63;;;;;;;14.70;40.68;93311.34;4933848;29;20494;-83
2022/01/07 11:05:02;;;;;;;26.08;17.33;;;;;;;14.74;40.42;93300.97;4932945;28;20131;-83
2022/01/07 11:07:28;;;;;;;27.90;20.75;;;;;;;14.70;40.75;93302.44;4933909;28;20113;-83
2022/01/07 11:09:56;;;;;;;10.05;7.68;;;;;;;14.65;40.80;93295.00;4950962;28;20039;-82
2022/01/07 11:12:21;;;;;;;11.25;8.60;;;;;;;14.66;40.77;93288.31;4932915;28;20071;-83
2022/01/07 11:14:47;;;;;;;13.25;8.85;;;;;;;14.68;40.65;93294.78;4918048;29;20043;-82
2022/01/07 11:17:20;;;;;;;9.23;8.27;;;;;;;14.70;40.70;93291.56;4949443;28;20032;-82
2022/01/07 11:19:54;;;;;;;131.73;87.57;;;;;;;14.76;40.65;93286.88;4932283;28;20098;-83
2022/01/07 11:22:19;;;;;;;77.28;53.28;;;;;;;14.83;40.58;93282.94;4918830;28;20039;-85
2022/01/07 11:24:47;;;;;;;17.88;13.02;;;;;;;14.80;40.50;93287.38;4927831;28;20558;-84
2022/01/07 11:27:18;;;;;;;11.77;9.32;;;;;;;14.74;40.76;93290.06;4933197;28;20122;-83
2022/01/07 11:30:12;;;;;;;12.95;9.45;;;;;;;14.68;40.43;93278.44;4934286;28;20082;-83